sensor_id;sensor_type;location;lat;lon;timestamp;P1;durP1;ratioP1;P2;durP2;ratioP2
56083;SDS011;41958;52.416;13.428;2022-10-04T00:01:20;9.13;;;1.80;;
56083;SDS011;41958;52.416;13.428;2022-10-04T00:03:48;9.05;;;2.00;;
56083;SDS011;41958;52.416;13.428;2022-10-04T00:06:25;10.38;;;1.75;;
56083;SDS011;41958;52.416;13.428;2022-10-04T00:08:52;6.65;;;1.15;;
56083;SDS011;41958;52.416;13.428;2022-10-04T00:11:27;8.65;;;1.92;;
56083;SDS011;41958;52.416;13.428;2022-10-04T00:13:56;9.88;;;1.50;;
56083;SDS011;41958;52.416;13.428;2022-10-04T00:16:28;10.48;;;2.08;;
56083;SDS011;41958;52.416;13.428;2022-10-04T00:19:01;10.35;;;2.10;;
56083;SDS011;41958;52.416;13.428;2022-10-04T00:24:28;11.70;;;1.70;;
56083;SDS011;41958;52.416;13.428;2022-10-04T00:27:09;6.63;;;2.03;;
56083;SDS011;41958;52.416;13.428;2022-10-04T00:29:43;13.35;;;2.22;;
56083;SDS011;41958;52.416;13.428;2022-10-04T00:34:48;10.10;;;1.70;;
56083;SDS011;41958;52.416;13.428;2022-10-04T00:37:16;8.35;;;2.42;;
56083;SDS011;41958;52.416;13.428;2022-10-04T00:40:30;7.72;;;1.77;;
56083;SDS011;41958;52.416;13.428;2022-10-04T00:45:06;8.60;;;2.22;;
56083;SDS011;41958;52.416;13.428;2022-10-04T00:50:17;11.83;;;2.00;;
56083;SDS011;41958;52.416;13.428;2022-10-04T00:52:50;8.18;;;1.92;;
56083;SDS011;41958;52.416;13.428;2022-10-04T00:55:31;5.05;;;1.60;;
56083;SDS011;41958;52.416;13.428;2022-10-04T00:58:03;6.65;;;1.73;;
56083;SDS011;41958;52.416;13.428;2022-10-04T01:00:36;5.32;;;2.08;;
56083;SDS011;41958;52.416;13.428;2022-10-04T01:03:04;9.23;;;2.25;;
56083;SDS011;41958;52.416;13.428;2022-10-04T01:05:32;5.18;;;1.73;;
56083;SDS011;41958;52.416;13.428;2022-10-04T01:08:07;11.70;;;2.50;;
56083;SDS011;41958;52.416;13.428;2022-10-04T01:10:38;12.48;;;1.70;;
56083;SDS011;41958;52.416;13.428;2022-10-04T01:13:15;8.60;;;2.13;;
56083;SDS011;41958;52.416;13.428;2022-10-04T01:15:48;7.28;;;1.52;;
56083;SDS011;41958;52.416;13.428;2022-10-04T01:21:04;10.20;;;2.20;;
56083;SDS011;41958;52.416;13.428;2022-10-04T01:23:32;6.40;;;1.70;;
56083;SDS011;41958;52.416;13.428;2022-10-04T01:25:59;12.60;;;2.10;;
56083;SDS011;41958;52.416;13.428;2022-10-04T01:28:25;7.20;;;1.60;;
56083;SDS011;41958;52.416;13.428;2022-10-04T01:30:51;8.40;;;1.55;;
56083;SDS011;41958;52.416;13.428;2022-10-04T01:33:17;9.93;;;2.13;;
56083;SDS011;41958;52.416;13.428;2022-10-04T01:35:42;8.82;;;2.35;;
56083;SDS011;41958;52.416;13.428;2022-10-04T01:38:08;7.75;;;1.70;;
56083;SDS011;41958;52.416;13.428;2022-10-04T01:40:34;10.32;;;2.10;;
56083;SDS011;41958;52.416;13.428;2022-10-04T01:43:04;10.77;;;1.83;;
56083;SDS011;41958;52.416;13.428;2022-10-04T01:45:42;11.95;;;1.73;;
56083;SDS011;41958;52.416;13.428;2022-10-04T01:48:14;11.05;;;2.03;;
56083;SDS011;41958;52.416;13.428;2022-10-04T01:50:46;7.43;;;1.70;;
56083;SDS011;41958;52.416;13.428;2022-10-04T01:53:26;11.77;;;2.10;;
56083;SDS011;41958;52.416;13.428;2022-10-04T01:55:54;6.23;;;1.83;;
56083;SDS011;41958;52.416;13.428;2022-10-04T01:58:29;6.38;;;1.70;;
56083;SDS011;41958;52.416;13.428;2022-10-04T02:01:04;4.97;;;1.58;;
56083;SDS011;41958;52.416;13.428;2022-10-04T02:03:36;17.45;;;2.30;;
56083;SDS011;41958;52.416;13.428;2022-10-04T02:06:12;6.70;;;2.10;;
56083;SDS011;41958;52.416;13.428;2022-10-04T02:08:43;7.20;;;1.95;;
56083;SDS011;41958;52.416;13.428;2022-10-04T02:11:15;6.90;;;2.15;;
56083;SDS011;41958;52.416;13.428;2022-10-04T02:13:45;7.90;;;2.20;;
56083;SDS011;41958;52.416;13.428;2022-10-04T02:16:14;5.05;;;2.00;;
56083;SDS011;41958;52.416;13.428;2022-10-04T02:18:41;6.78;;;1.77;;
56083;SDS011;41958;52.416;13.428;2022-10-04T02:21:08;11.40;;;2.50;;
56083;SDS011;41958;52.416;13.428;2022-10-04T02:23:35;6.10;;;2.05;;
56083;SDS011;41958;52.416;13.428;2022-10-04T02:26:05;9.75;;;1.88;;
56083;SDS011;41958;52.416;13.428;2022-10-04T02:28:32;7.40;;;2.10;;
56083;SDS011;41958;52.416;13.428;2022-10-04T02:30:59;12.43;;;2.55;;
56083;SDS011;41958;52.416;13.428;2022-10-04T02:33:45;13.27;;;2.85;;
56083;SDS011;41958;52.416;13.428;2022-10-04T02:36:13;7.47;;;1.98;;
56083;SDS011;41958;52.416;13.428;2022-10-04T02:39:00;7.38;;;1.60;;
56083;SDS011;41958;52.416;13.428;2022-10-04T02:44:02;10.43;;;2.13;;
56083;SDS011;41958;52.416;13.428;2022-10-04T02:49:45;7.78;;;2.03;;
56083;SDS011;41958;52.416;13.428;2022-10-04T02:52:16;13.55;;;2.08;;
56083;SDS011;41958;52.416;13.428;2022-10-04T02:55:00;10.00;;;1.77;;
56083;SDS011;41958;52.416;13.428;2022-10-04T02:57:29;7.30;;;2.20;;
56083;SDS011;41958;52.416;13.428;2022-10-04T03:00:01;9.30;;;1.90;;
56083;SDS011;41958;52.416;13.428;2022-10-04T03:05:37;8.70;;;1.77;;
56083;SDS011;41958;52.416;13.428;2022-10-04T03:08:03;9.48;;;2.42;;
56083;SDS011;41958;52.416;13.428;2022-10-04T03:10:29;9.18;;;1.98;;
56083;SDS011;41958;52.416;13.428;2022-10-04T03:12:54;8.00;;;1.77;;
56083;SDS011;41958;52.416;13.428;2022-10-04T03:15:20;13.52;;;2.67;;
56083;SDS011;41958;52.416;13.428;2022-10-04T03:17:46;14.35;;;2.75;;
56083;SDS011;41958;52.416;13.428;2022-10-04T03:20:11;7.97;;;2.08;;
56083;SDS011;41958;52.416;13.428;2022-10-04T03:22:40;10.73;;;2.55;;
56083;SDS011;41958;52.416;13.428;2022-10-04T03:25:11;11.07;;;2.50;;
56083;SDS011;41958;52.416;13.428;2022-10-04T03:27:41;11.52;;;2.28;;
56083;SDS011;41958;52.416;13.428;2022-10-04T03:30:11;8.05;;;3.10;;
56083;SDS011;41958;52.416;13.428;2022-10-04T03:32:38;9.20;;;2.55;;
56083;SDS011;41958;52.416;13.428;2022-10-04T03:35:04;10.27;;;2.58;;
56083;SDS011;41958;52.416;13.428;2022-10-04T03:37:41;9.02;;;2.65;;
56083;SDS011;41958;52.416;13.428;2022-10-04T03:40:07;12.80;;;2.47;;
56083;SDS011;41958;52.416;13.428;2022-10-04T03:42:34;9.73;;;2.25;;
56083;SDS011;41958;52.416;13.428;2022-10-04T03:45:03;9.23;;;2.67;;
56083;SDS011;41958;52.416;13.428;2022-10-04T03:47:36;12.57;;;2.58;;
56083;SDS011;41958;52.416;13.428;2022-10-04T03:50:12;11.05;;;2.63;;
56083;SDS011;41958;52.416;13.428;2022-10-04T03:52:44;10.13;;;2.50;;
56083;SDS011;41958;52.416;13.428;2022-10-04T03:55:14;6.13;;;2.60;;
56083;SDS011;41958;52.416;13.428;2022-10-04T03:57:41;9.50;;;2.40;;
56083;SDS011;41958;52.416;13.428;2022-10-04T04:00:07;7.82;;;2.13;;
56083;SDS011;41958;52.416;13.428;2022-10-04T04:02:41;9.98;;;2.78;;
56083;SDS011;41958;52.416;13.428;2022-10-04T04:05:13;14.40;;;2.85;;
56083;SDS011;41958;52.416;13.428;2022-10-04T04:07:53;14.55;;;2.55;;
56083;SDS011;41958;52.416;13.428;2022-10-04T04:10:30;9.98;;;2.38;;
56083;SDS011;41958;52.416;13.428;2022-10-04T04:13:10;9.82;;;2.75;;
56083;SDS011;41958;52.416;13.428;2022-10-04T04:15:52;9.90;;;2.17;;
56083;SDS011;41958;52.416;13.428;2022-10-04T04:18:20;6.75;;;2.60;;
56083;SDS011;41958;52.416;13.428;2022-10-04T04:20:48;10.65;;;1.95;;
56083;SDS011;41958;52.416;13.428;2022-10-04T04:23:23;9.32;;;1.90;;
56083;SDS011;41958;52.416;13.428;2022-10-04T04:25:53;7.70;;;1.50;;
56083;SDS011;41958;52.416;13.428;2022-10-04T04:28:22;6.43;;;1.67;;
56083;SDS011;41958;52.416;13.428;2022-10-04T04:30:50;10.15;;;1.60;;
56083;SDS011;41958;52.416;13.428;2022-10-04T04:34:02;5.43;;;1.60;;
56083;SDS011;41958;52.416;13.428;2022-10-04T04:36:40;7.38;;;1.52;;
56083;SDS011;41958;52.416;13.428;2022-10-04T04:39:13;7.88;;;1.85;;
56083;SDS011;41958;52.416;13.428;2022-10-04T04:42:04;11.73;;;1.67;;
56083;SDS011;41958;52.416;13.428;2022-10-04T04:44:30;9.18;;;1.65;;
56083;SDS011;41958;52.416;13.428;2022-10-04T04:46:57;6.03;;;1.60;;
56083;SDS011;41958;52.416;13.428;2022-10-04T04:49:24;5.35;;;1.35;;
56083;SDS011;41958;52.416;13.428;2022-10-04T04:51:53;5.50;;;1.52;;
56083;SDS011;41958;52.416;13.428;2022-10-04T04:54:21;5.40;;;1.20;;
56083;SDS011;41958;52.416;13.428;2022-10-04T04:56:50;7.85;;;1.63;;
56083;SDS011;41958;52.416;13.428;2022-10-04T04:59:17;9.25;;;1.95;;
56083;SDS011;41958;52.416;13.428;2022-10-04T05:01:46;7.22;;;1.42;;
56083;SDS011;41958;52.416;13.428;2022-10-04T05:06:38;5.17;;;1.87;;
56083;SDS011;41958;52.416;13.428;2022-10-04T05:09:21;7.35;;;2.30;;
56083;SDS011;41958;52.416;13.428;2022-10-04T05:11:56;7.75;;;1.77;;
56083;SDS011;41958;52.416;13.428;2022-10-04T05:14:44;5.60;;;1.65;;
56083;SDS011;41958;52.416;13.428;2022-10-04T05:17:16;10.10;;;1.95;;
56083;SDS011;41958;52.416;13.428;2022-10-04T05:19:44;11.82;;;1.73;;
56083;SDS011;41958;52.416;13.428;2022-10-04T05:22:10;10.05;;;2.17;;
56083;SDS011;41958;52.416;13.428;2022-10-04T05:24:39;7.47;;;1.50;;
56083;SDS011;41958;52.416;13.428;2022-10-04T05:27:12;7.25;;;2.03;;
56083;SDS011;41958;52.416;13.428;2022-10-04T05:29:53;8.02;;;1.83;;
56083;SDS011;41958;52.416;13.428;2022-10-04T05:33:12;10.25;;;1.45;;
56083;SDS011;41958;52.416;13.428;2022-10-04T05:35:25;5.75;;;1.67;;
56083;SDS011;41958;52.416;13.428;2022-10-04T05:42:55;9.38;;;1.70;;
56083;SDS011;41958;52.416;13.428;2022-10-04T05:45:23;3.13;;;1.10;;
56083;SDS011;41958;52.416;13.428;2022-10-04T05:47:52;10.30;;;2.10;;
56083;SDS011;41958;52.416;13.428;2022-10-04T05:50:21;6.40;;;1.52;;
56083;SDS011;41958;52.416;13.428;2022-10-04T05:52:53;8.57;;;1.85;;
56083;SDS011;41958;52.416;13.428;2022-10-04T05:55:40;7.10;;;2.03;;
56083;SDS011;41958;52.416;13.428;2022-10-04T05:58:25;7.03;;;1.80;;
56083;SDS011;41958;52.416;13.428;2022-10-04T06:01:18;7.05;;;2.55;;
56083;SDS011;41958;52.416;13.428;2022-10-04T06:04:10;9.98;;;2.42;;
56083;SDS011;41958;52.416;13.428;2022-10-04T06:06:39;10.80;;;2.08;;
56083;SDS011;41958;52.416;13.428;2022-10-04T06:09:35;9.00;;;1.98;;
56083;SDS011;41958;52.416;13.428;2022-10-04T06:12:21;3.95;;;1.63;;
56083;SDS011;41958;52.416;13.428;2022-10-04T06:17:58;7.35;;;1.70;;
56083;SDS011;41958;52.416;13.428;2022-10-04T06:23:25;4.78;;;1.65;;
56083;SDS011;41958;52.416;13.428;2022-10-04T06:25:55;11.15;;;1.90;;
56083;SDS011;41958;52.416;13.428;2022-10-04T06:28:40;4.68;;;1.38;;
56083;SDS011;41958;52.416;13.428;2022-10-04T06:34:01;8.90;;;1.80;;
56083;SDS011;41958;52.416;13.428;2022-10-04T06:36:51;6.30;;;1.65;;
56083;SDS011;41958;52.416;13.428;2022-10-04T06:39:30;6.88;;;1.40;;
56083;SDS011;41958;52.416;13.428;2022-10-04T06:44:49;10.38;;;1.67;;
56083;SDS011;41958;52.416;13.428;2022-10-04T06:50:19;5.28;;;1.40;;
56083;SDS011;41958;52.416;13.428;2022-10-04T06:53:13;9.38;;;1.83;;
56083;SDS011;41958;52.416;13.428;2022-10-04T06:55:44;7.55;;;1.95;;
56083;SDS011;41958;52.416;13.428;2022-10-04T07:01:22;6.88;;;2.08;;
56083;SDS011;41958;52.416;13.428;2022-10-04T07:09:00;6.65;;;1.77;;
56083;SDS011;41958;52.416;13.428;2022-10-04T07:11:30;8.48;;;2.28;;
56083;SDS011;41958;52.416;13.428;2022-10-04T07:16:35;8.63;;;1.90;;
56083;SDS011;41958;52.416;13.428;2022-10-04T07:19:19;6.03;;;2.08;;
56083;SDS011;41958;52.416;13.428;2022-10-04T07:27:09;9.38;;;2.30;;
56083;SDS011;41958;52.416;13.428;2022-10-04T07:29:40;5.88;;;2.20;;
56083;SDS011;41958;52.416;13.428;2022-10-04T07:32:14;6.05;;;2.10;;
56083;SDS011;41958;52.416;13.428;2022-10-04T07:34:49;12.35;;;2.65;;
56083;SDS011;41958;52.416;13.428;2022-10-04T07:37:18;10.25;;;2.28;;
56083;SDS011;41958;52.416;13.428;2022-10-04T07:42:43;9.73;;;2.47;;
56083;SDS011;41958;52.416;13.428;2022-10-04T07:45:26;8.07;;;2.70;;
56083;SDS011;41958;52.416;13.428;2022-10-04T07:48:03;9.00;;;2.67;;
56083;SDS011;41958;52.416;13.428;2022-10-04T07:50:39;9.60;;;2.50;;
56083;SDS011;41958;52.416;13.428;2022-10-04T07:53:20;8.40;;;2.60;;
56083;SDS011;41958;52.416;13.428;2022-10-04T07:56:05;11.07;;;2.80;;
56083;SDS011;41958;52.416;13.428;2022-10-04T08:01:28;4.70;;;2.45;;
56083;SDS011;41958;52.416;13.428;2022-10-04T08:04:23;9.18;;;2.83;;
56083;SDS011;41958;52.416;13.428;2022-10-04T08:15:27;8.02;;;3.00;;
56083;SDS011;41958;52.416;13.428;2022-10-04T08:18:06;7.50;;;2.63;;
56083;SDS011;41958;52.416;13.428;2022-10-04T08:20:53;6.07;;;2.88;;
56083;SDS011;41958;52.416;13.428;2022-10-04T08:23:33;7.60;;;3.22;;
56083;SDS011;41958;52.416;13.428;2022-10-04T08:32:16;10.07;;;3.30;;
56083;SDS011;41958;52.416;13.428;2022-10-04T08:51:33;7.72;;;2.92;;
56083;SDS011;41958;52.416;13.428;2022-10-04T08:59:42;6.78;;;2.75;;
56083;SDS011;41958;52.416;13.428;2022-10-04T09:02:38;7.70;;;2.45;;
56083;SDS011;41958;52.416;13.428;2022-10-04T09:05:30;7.22;;;2.72;;
56083;SDS011;41958;52.416;13.428;2022-10-04T09:08:21;6.13;;;1.98;;
56083;SDS011;41958;52.416;13.428;2022-10-04T09:11:16;6.35;;;2.00;;
56083;SDS011;41958;52.416;13.428;2022-10-04T09:14:06;7.43;;;2.40;;
56083;SDS011;41958;52.416;13.428;2022-10-04T09:16:48;4.40;;;1.50;;
56083;SDS011;41958;52.416;13.428;2022-10-04T09:19:49;4.25;;;1.23;;
56083;SDS011;41958;52.416;13.428;2022-10-04T09:22:17;6.00;;;1.52;;
56083;SDS011;41958;52.416;13.428;2022-10-04T09:25:29;3.53;;;1.20;;
56083;SDS011;41958;52.416;13.428;2022-10-04T09:33:41;4.35;;;1.48;;
56083;SDS011;41958;52.416;13.428;2022-10-04T09:36:30;3.42;;;1.42;;
56083;SDS011;41958;52.416;13.428;2022-10-04T09:39:10;6.35;;;1.80;;
56083;SDS011;41958;52.416;13.428;2022-10-04T09:42:23;3.95;;;1.25;;
56083;SDS011;41958;52.416;13.428;2022-10-04T09:45:06;4.50;;;1.23;;
56083;SDS011;41958;52.416;13.428;2022-10-04T09:47:44;5.35;;;1.40;;
56083;SDS011;41958;52.416;13.428;2022-10-04T09:58:33;7.22;;;1.55;;
56083;SDS011;41958;52.416;13.428;2022-10-04T10:04:04;4.95;;;1.45;;
56083;SDS011;41958;52.416;13.428;2022-10-04T10:06:50;5.35;;;1.50;;
56083;SDS011;41958;52.416;13.428;2022-10-04T10:09:27;3.33;;;1.42;;
56083;SDS011;41958;52.416;13.428;2022-10-04T10:12:23;3.15;;;1.20;;
56083;SDS011;41958;52.416;13.428;2022-10-04T10:15:23;3.92;;;1.10;;
56083;SDS011;41958;52.416;13.428;2022-10-04T10:18:01;5.00;;;1.40;;
56083;SDS011;41958;52.416;13.428;2022-10-04T10:20:45;6.10;;;1.60;;
56083;SDS011;41958;52.416;13.428;2022-10-04T10:34:34;6.32;;;1.48;;
56083;SDS011;41958;52.416;13.428;2022-10-04T10:40:15;4.10;;;1.40;;
56083;SDS011;41958;52.416;13.428;2022-10-04T10:45:54;2.92;;;1.30;;
56083;SDS011;41958;52.416;13.428;2022-10-04T10:49:04;4.45;;;1.33;;
56083;SDS011;41958;52.416;13.428;2022-10-04T10:57:14;3.45;;;1.20;;
56083;SDS011;41958;52.416;13.428;2022-10-04T10:59:52;3.08;;;1.35;;
56083;SDS011;41958;52.416;13.428;2022-10-04T11:08:44;6.80;;;1.65;;
56083;SDS011;41958;52.416;13.428;2022-10-04T11:11:47;4.63;;;1.25;;
56083;SDS011;41958;52.416;13.428;2022-10-04T11:26:51;5.30;;;1.25;;
56083;SDS011;41958;52.416;13.428;2022-10-04T11:37:35;4.75;;;1.33;;
56083;SDS011;41958;52.416;13.428;2022-10-04T11:40:34;6.78;;;1.10;;
56083;SDS011;41958;52.416;13.428;2022-10-04T11:43:36;6.03;;;1.90;;
56083;SDS011;41958;52.416;13.428;2022-10-04T11:55:45;4.93;;;1.60;;
56083;SDS011;41958;52.416;13.428;2022-10-04T12:10:35;7.35;;;1.52;;
56083;SDS011;41958;52.416;13.428;2022-10-04T12:16:13;6.45;;;1.15;;
56083;SDS011;41958;52.416;13.428;2022-10-04T12:32:57;3.72;;;1.00;;
56083;SDS011;41958;52.416;13.428;2022-10-04T12:38:41;4.55;;;1.10;;
56083;SDS011;41958;52.416;13.428;2022-10-04T12:41:24;5.93;;;1.10;;
56083;SDS011;41958;52.416;13.428;2022-10-04T12:44:05;1.88;;;0.90;;
56083;SDS011;41958;52.416;13.428;2022-10-04T12:46:52;4.00;;;0.80;;
56083;SDS011;41958;52.416;13.428;2022-10-04T12:52:16;4.18;;;0.95;;
56083;SDS011;41958;52.416;13.428;2022-10-04T12:55:01;6.90;;;1.20;;
56083;SDS011;41958;52.416;13.428;2022-10-04T12:57:50;4.63;;;0.90;;
56083;SDS011;41958;52.416;13.428;2022-10-04T13:00:23;5.18;;;0.80;;
56083;SDS011;41958;52.416;13.428;2022-10-04T13:14:02;7.22;;;1.02;;
56083;SDS011;41958;52.416;13.428;2022-10-04T13:17:02;2.42;;;0.60;;
56083;SDS011;41958;52.416;13.428;2022-10-04T13:19:37;5.97;;;0.90;;
56083;SDS011;41958;52.416;13.428;2022-10-04T13:25:22;2.88;;;0.80;;
56083;SDS011;41958;52.416;13.428;2022-10-04T13:28:15;4.38;;;0.80;;
56083;SDS011;41958;52.416;13.428;2022-10-04T13:30:56;2.25;;;0.40;;
56083;SDS011;41958;52.416;13.428;2022-10-04T13:33:45;4.47;;;0.73;;
56083;SDS011;41958;52.416;13.428;2022-10-04T13:36:23;3.45;;;0.60;;
56083;SDS011;41958;52.416;13.428;2022-10-04T13:47:32;4.15;;;0.85;;
56083;SDS011;41958;52.416;13.428;2022-10-04T13:53:18;2.15;;;0.40;;
56083;SDS011;41958;52.416;13.428;2022-10-04T13:59:15;3.90;;;0.45;;
56083;SDS011;41958;52.416;13.428;2022-10-04T14:05:02;3.97;;;0.50;;
56083;SDS011;41958;52.416;13.428;2022-10-04T14:07:49;7.97;;;0.68;;
56083;SDS011;41958;52.416;13.428;2022-10-04T14:22:33;2.25;;;0.47;;
56083;SDS011;41958;52.416;13.428;2022-10-04T14:28:17;3.55;;;0.80;;
56083;SDS011;41958;52.416;13.428;2022-10-04T14:31:07;4.25;;;0.68;;
56083;SDS011;41958;52.416;13.428;2022-10-04T14:36:45;1.67;;;0.63;;
56083;SDS011;41958;52.416;13.428;2022-10-04T14:42:30;5.25;;;0.70;;
56083;SDS011;41958;52.416;13.428;2022-10-04T14:45:31;4.43;;;0.70;;
56083;SDS011;41958;52.416;13.428;2022-10-04T14:53:41;2.08;;;0.77;;
56083;SDS011;41958;52.416;13.428;2022-10-04T14:56:22;3.60;;;0.85;;
56083;SDS011;41958;52.416;13.428;2022-10-04T14:59:03;4.70;;;0.40;;
56083;SDS011;41958;52.416;13.428;2022-10-04T15:04:35;0.50;;;0.30;;
56083;SDS011;41958;52.416;13.428;2022-10-04T15:07:28;2.35;;;0.60;;
56083;SDS011;41958;52.416;13.428;2022-10-04T15:12:58;5.30;;;0.85;;
56083;SDS011;41958;52.416;13.428;2022-10-04T15:15:35;1.35;;;0.50;;
56083;SDS011;41958;52.416;13.428;2022-10-04T15:21:05;2.13;;;0.50;;
56083;SDS011;41958;52.416;13.428;2022-10-04T15:23:44;4.40;;;0.60;;
56083;SDS011;41958;52.416;13.428;2022-10-04T15:28:45;4.73;;;0.90;;
56083;SDS011;41958;52.416;13.428;2022-10-04T15:40:39;2.75;;;0.60;;
56083;SDS011;41958;52.416;13.428;2022-10-04T15:43:27;1.88;;;0.63;;
56083;SDS011;41958;52.416;13.428;2022-10-04T15:46:04;1.73;;;0.85;;
56083;SDS011;41958;52.416;13.428;2022-10-04T16:00:27;4.68;;;0.90;;
56083;SDS011;41958;52.416;13.428;2022-10-04T16:03:11;2.65;;;0.85;;
56083;SDS011;41958;52.416;13.428;2022-10-04T16:08:51;3.85;;;0.90;;
56083;SDS011;41958;52.416;13.428;2022-10-04T16:11:32;3.75;;;0.93;;
56083;SDS011;41958;52.416;13.428;2022-10-04T16:14:17;3.38;;;1.17;;
56083;SDS011;41958;52.416;13.428;2022-10-04T16:17:10;3.85;;;1.05;;
56083;SDS011;41958;52.416;13.428;2022-10-04T16:25:57;4.03;;;0.90;;
56083;SDS011;41958;52.416;13.428;2022-10-04T16:28:28;3.70;;;0.98;;
56083;SDS011;41958;52.416;13.428;2022-10-04T16:33:55;4.07;;;1.75;;
56083;SDS011;41958;52.416;13.428;2022-10-04T16:36:44;5.22;;;1.70;;
56083;SDS011;41958;52.416;13.428;2022-10-04T16:45:29;5.32;;;1.60;;
56083;SDS011;41958;52.416;13.428;2022-10-04T16:48:10;4.35;;;1.40;;
56083;SDS011;41958;52.416;13.428;2022-10-04T16:53:49;5.13;;;1.50;;
56083;SDS011;41958;52.416;13.428;2022-10-04T16:56:27;4.75;;;1.58;;
56083;SDS011;41958;52.416;13.428;2022-10-04T16:59:00;5.47;;;1.70;;
56083;SDS011;41958;52.416;13.428;2022-10-04T17:01:49;2.63;;;1.40;;
56083;SDS011;41958;52.416;13.428;2022-10-04T17:13:51;3.65;;;1.13;;
56083;SDS011;41958;52.416;13.428;2022-10-04T17:16:35;4.93;;;1.70;;
56083;SDS011;41958;52.416;13.428;2022-10-04T17:21:57;7.03;;;1.67;;
56083;SDS011;41958;52.416;13.428;2022-10-04T17:24:39;4.00;;;1.30;;
56083;SDS011;41958;52.416;13.428;2022-10-04T17:27:25;5.15;;;1.90;;
56083;SDS011;41958;52.416;13.428;2022-10-04T17:30:17;5.55;;;1.90;;
56083;SDS011;41958;52.416;13.428;2022-10-04T17:35:55;4.30;;;1.83;;
56083;SDS011;41958;52.416;13.428;2022-10-04T17:38:27;5.40;;;2.17;;
56083;SDS011;41958;52.416;13.428;2022-10-04T17:42:05;4.63;;;1.92;;
56083;SDS011;41958;52.416;13.428;2022-10-04T17:49:54;6.03;;;2.70;;
56083;SDS011;41958;52.416;13.428;2022-10-04T17:52:45;8.10;;;2.50;;
56083;SDS011;41958;52.416;13.428;2022-10-04T17:55:47;5.82;;;2.22;;
56083;SDS011;41958;52.416;13.428;2022-10-04T17:58:18;6.05;;;3.00;;
56083;SDS011;41958;52.416;13.428;2022-10-04T18:03:46;3.67;;;2.53;;
56083;SDS011;41958;52.416;13.428;2022-10-04T18:06:30;6.45;;;2.70;;
56083;SDS011;41958;52.416;13.428;2022-10-04T18:09:04;4.30;;;2.30;;
56083;SDS011;41958;52.416;13.428;2022-10-04T18:11:43;3.78;;;2.03;;
56083;SDS011;41958;52.416;13.428;2022-10-04T18:14:20;3.60;;;1.92;;
56083;SDS011;41958;52.416;13.428;2022-10-04T18:17:00;5.15;;;2.50;;
56083;SDS011;41958;52.416;13.428;2022-10-04T18:19:33;2.85;;;1.90;;
56083;SDS011;41958;52.416;13.428;2022-10-04T18:22:12;2.95;;;1.65;;
56083;SDS011;41958;52.416;13.428;2022-10-04T18:24:40;4.78;;;2.10;;
56083;SDS011;41958;52.416;13.428;2022-10-04T18:35:18;3.70;;;2.17;;
56083;SDS011;41958;52.416;13.428;2022-10-04T18:37:51;4.47;;;1.95;;
56083;SDS011;41958;52.416;13.428;2022-10-04T18:40:31;6.30;;;2.38;;
56083;SDS011;41958;52.416;13.428;2022-10-04T18:42:58;3.17;;;2.30;;
56083;SDS011;41958;52.416;13.428;2022-10-04T18:45:26;7.32;;;2.90;;
56083;SDS011;41958;52.416;13.428;2022-10-04T18:47:56;6.72;;;3.08;;
56083;SDS011;41958;52.416;13.428;2022-10-04T18:53:11;4.18;;;2.40;;
56083;SDS011;41958;52.416;13.428;2022-10-04T19:10:05;5.60;;;2.90;;
56083;SDS011;41958;52.416;13.428;2022-10-04T19:15:24;3.83;;;3.33;;
56083;SDS011;41958;52.416;13.428;2022-10-04T19:18:17;5.43;;;3.90;;
56083;SDS011;41958;52.416;13.428;2022-10-04T19:26:33;7.38;;;4.72;;
56083;SDS011;41958;52.416;13.428;2022-10-04T19:32:03;7.47;;;3.85;;
56083;SDS011;41958;52.416;13.428;2022-10-04T19:35:10;8.95;;;3.90;;
56083;SDS011;41958;52.416;13.428;2022-10-04T19:43:13;7.32;;;3.90;;
56083;SDS011;41958;52.416;13.428;2022-10-04T19:48:51;8.35;;;4.30;;
56083;SDS011;41958;52.416;13.428;2022-10-04T19:54:15;6.03;;;4.15;;
56083;SDS011;41958;52.416;13.428;2022-10-04T19:56:46;7.38;;;3.88;;
56083;SDS011;41958;52.416;13.428;2022-10-04T19:59:14;8.80;;;4.40;;
56083;SDS011;41958;52.416;13.428;2022-10-04T20:01:59;6.93;;;3.83;;
56083;SDS011;41958;52.416;13.428;2022-10-04T20:04:25;5.90;;;3.75;;
56083;SDS011;41958;52.416;13.428;2022-10-04T20:07:00;8.07;;;3.88;;
56083;SDS011;41958;52.416;13.428;2022-10-04T20:11:55;7.30;;;4.00;;
56083;SDS011;41958;52.416;13.428;2022-10-04T20:19:58;6.60;;;3.97;;
56083;SDS011;41958;52.416;13.428;2022-10-04T20:27:04;4.77;;;3.73;;
56083;SDS011;41958;52.416;13.428;2022-10-04T20:32:02;4.78;;;3.60;;
56083;SDS011;41958;52.416;13.428;2022-10-04T20:37:06;4.70;;;3.60;;
56083;SDS011;41958;52.416;13.428;2022-10-04T20:42:07;4.80;;;3.72;;
56083;SDS011;41958;52.416;13.428;2022-10-04T20:44:56;6.68;;;3.55;;
56083;SDS011;41958;52.416;13.428;2022-10-04T20:47:28;5.30;;;3.58;;
56083;SDS011;41958;52.416;13.428;2022-10-04T20:49:57;7.53;;;3.83;;
56083;SDS011;41958;52.416;13.428;2022-10-04T20:52:26;6.05;;;3.35;;
56083;SDS011;41958;52.416;13.428;2022-10-04T20:54:54;7.07;;;3.35;;
56083;SDS011;41958;52.416;13.428;2022-10-04T20:57:21;9.68;;;3.83;;
56083;SDS011;41958;52.416;13.428;2022-10-04T20:59:47;6.63;;;4.20;;
56083;SDS011;41958;52.416;13.428;2022-10-04T21:02:18;11.05;;;3.90;;
56083;SDS011;41958;52.416;13.428;2022-10-04T21:04:44;6.20;;;3.30;;
56083;SDS011;41958;52.416;13.428;2022-10-04T21:07:15;6.32;;;3.65;;
56083;SDS011;41958;52.416;13.428;2022-10-04T21:09:42;8.25;;;4.03;;
56083;SDS011;41958;52.416;13.428;2022-10-04T21:12:25;6.43;;;3.63;;
56083;SDS011;41958;52.416;13.428;2022-10-04T21:15:11;12.90;;;4.30;;
56083;SDS011;41958;52.416;13.428;2022-10-04T21:17:41;5.13;;;3.15;;
56083;SDS011;41958;52.416;13.428;2022-10-04T21:20:53;7.07;;;3.50;;
56083;SDS011;41958;52.416;13.428;2022-10-04T21:23:08;6.40;;;3.60;;
56083;SDS011;41958;52.416;13.428;2022-10-04T21:25:41;11.13;;;3.47;;
56083;SDS011;41958;52.416;13.428;2022-10-04T21:30:50;8.90;;;3.50;;
56083;SDS011;41958;52.416;13.428;2022-10-04T21:33:15;4.70;;;3.70;;
56083;SDS011;41958;52.416;13.428;2022-10-04T21:35:40;4.78;;;3.70;;
56083;SDS011;41958;52.416;13.428;2022-10-04T21:38:06;5.53;;;3.55;;
56083;SDS011;41958;52.416;13.428;2022-10-04T21:40:31;8.38;;;3.88;;
56083;SDS011;41958;52.416;13.428;2022-10-04T21:42:56;6.72;;;3.80;;
56083;SDS011;41958;52.416;13.428;2022-10-04T21:45:21;5.03;;;3.67;;
56083;SDS011;41958;52.416;13.428;2022-10-04T21:47:47;7.40;;;3.55;;
56083;SDS011;41958;52.416;13.428;2022-10-04T21:50:12;6.00;;;3.70;;
56083;SDS011;41958;52.416;13.428;2022-10-04T21:52:37;5.50;;;3.70;;
56083;SDS011;41958;52.416;13.428;2022-10-04T21:55:02;5.88;;;3.67;;
56083;SDS011;41958;52.416;13.428;2022-10-04T21:57:34;5.10;;;3.25;;
56083;SDS011;41958;52.416;13.428;2022-10-04T21:59:59;8.02;;;3.25;;
56083;SDS011;41958;52.416;13.428;2022-10-04T22:02:24;8.57;;;3.65;;
56083;SDS011;41958;52.416;13.428;2022-10-04T22:04:50;4.70;;;2.88;;
56083;SDS011;41958;52.416;13.428;2022-10-04T22:07:15;3.60;;;3.28;;
56083;SDS011;41958;52.416;13.428;2022-10-04T22:09:40;7.13;;;4.20;;
56083;SDS011;41958;52.416;13.428;2022-10-04T22:12:05;4.28;;;3.80;;
56083;SDS011;41958;52.416;13.428;2022-10-04T22:14:31;5.20;;;3.10;;
56083;SDS011;41958;52.416;13.428;2022-10-04T22:16:56;8.93;;;3.70;;
56083;SDS011;41958;52.416;13.428;2022-10-04T22:19:21;4.97;;;3.25;;
56083;SDS011;41958;52.416;13.428;2022-10-04T22:21:46;7.97;;;3.63;;
56083;SDS011;41958;52.416;13.428;2022-10-04T22:24:14;6.38;;;3.33;;
56083;SDS011;41958;52.416;13.428;2022-10-04T22:26:42;5.63;;;3.08;;